Карточка аэропорта UHMM

Внимание!
Информация на этой странице в стадии наполнения.
Если вы не увидели какой-то информации, или заметили неточность - пожалуйста сообщите нам!
Спасибо!
Команда RU-STAFF
Название аэропортаСокол
Название аэропорта (англ.)Sokol
Превышение574 ft. (175 m.)
Координаты59°54.648', 150°43.2'
Высота перехода2500m
Эшелон переходаQFE>=744mm: FL100; 744mm>QFE>=717mm: FL110; QFE<717mm: FL120
Коды ответчика6540-6577
Зона ОрВДМагадан РПИ (UHMM)
Данные METARUHMM 281130Z 08008G13MPS 9999 -SHRA OVC040CB 06/01 Q0999 R10/19//60 NOSIG RMK QFE735 R28/12010G15MPS
Проноз погоды (TAF)UHMM 280753Z 2809/2915 11008G14MPS 9999 SCT020CB BKN030 TEMPO 2809/2812 5000 -SHRA SCT011 BKN020CB FM281200 08007G14MPS 3100 -SHRASN BR BKN011 OVC017CB TEMPO 2812/2909 1000 SHSNRA BR VV003
NOTAMshow/hide NOTAM
AWOS   TABLE

Информация о ВПП


Диспетчерские позиции

Позывной Наименование органа УВД Частота
UHMM_APPМагадан-Подход119.3
UHMM_TWRМагадан-Вышка120.8



Спутниковое изображение